Time;durP1;ratioP1;P1;durP2;ratioP2;P2;SDS_P1;SDS_P2;PMS_P1;PMS_P2;Temp;Humidity;BMP_temperature;BMP_pressure;BME280_temperature;BME280_humidity;BME280_pressure;Samples;Min_cycle;Max_cycle;Signal;HPM_P1;HPM_P2
2023/08/31 00:00:32;;;;;;;0.70;0.60;;;16.30;99.90;;;;;;4417999;32;20078;-74
2023/08/31 00:03:00;;;;;;;0.40;0.40;;;16.30;99.90;;;;;;4417678;32;20462;-74
2023/08/31 00:05:28;;;;;;;0.52;0.52;;;16.30;99.90;;;;;;4419550;32;20093;-74
2023/08/31 00:07:54;;;;;;;0.60;0.60;;;16.30;99.90;;;;;;4419280;32;20080;-75
2023/08/31 00:10:20;;;;;;;1.05;0.68;;;16.30;99.90;;;;;;4419886;32;20128;-74
2023/08/31 00:12:45;;;;;;;0.55;0.55;;;16.20;99.90;;;;;;4417678;32;20070;-74
2023/08/31 00:15:11;;;;;;;0.40;0.40;;;16.30;99.90;;;;;;4419994;32;20596;-74
2023/08/31 00:17:37;;;;;;;1.33;0.60;;;16.30;99.90;;;;;;4418266;32;20102;-74
2023/08/31 00:20:06;;;;;;;0.43;0.43;;;16.30;99.90;;;;;;4418127;32;20560;-74
2023/08/31 00:22:31;;;;;;;1.12;0.52;;;16.20;99.90;;;;;;4417798;32;20143;-74
2023/08/31 00:24:57;;;;;;;0.30;0.30;;;16.20;99.90;;;;;;4416552;32;20081;-73
2023/08/31 00:27:22;;;;;;;0.75;0.62;;;16.10;99.90;;;;;;4417997;32;20069;-74
2023/08/31 00:29:50;;;;;;;0.40;0.40;;;16.10;99.90;;;;;;4419459;32;20152;-74
2023/08/31 00:32:16;;;;;;;0.30;0.30;;;16.10;99.90;;;;;;4419899;32;20547;-74
2023/08/31 00:34:42;;;;;;;0.40;0.40;;;16.10;99.90;;;;;;4416701;32;20673;-74
2023/08/31 00:37:08;;;;;;;0.55;0.55;;;16.20;99.90;;;;;;4420216;32;20070;-74
2023/08/31 00:39:34;;;;;;;0.40;0.40;;;16.20;99.90;;;;;;4417519;32;20101;-74
2023/08/31 00:42:00;;;;;;;0.40;0.40;;;16.30;99.90;;;;;;4418343;32;20123;-74
2023/08/31 00:44:26;;;;;;;0.52;0.50;;;16.20;99.90;;;;;;4417131;32;20168;-74
2023/08/31 00:46:51;;;;;;;0.40;0.40;;;16.20;99.90;;;;;;4420606;32;20134;-74
2023/08/31 00:49:17;;;;;;;0.43;0.43;;;16.10;99.90;;;;;;4413769;32;20106;-74
2023/08/31 00:51:50;;;;;;;0.30;0.30;;;16.00;99.90;;;;;;4412204;32;20082;-73
2023/08/31 00:54:17;;;;;;;0.50;0.50;;;16.00;99.90;;;;;;4409504;32;20089;-74
2023/08/31 00:56:43;;;;;;;0.50;0.50;;;16.00;99.90;;;;;;4412373;32;20140;-74
2023/08/31 00:59:08;;;;;;;0.30;0.30;;;16.00;99.90;;;;;;4410128;32;20186;-74
2023/08/31 01:01:41;;;;;;;0.50;0.50;;;16.00;99.90;;;;;;4408183;32;20093;-74
2023/08/31 01:04:15;;;;;;;0.30;0.30;;;16.00;99.90;;;;;;4410368;32;20089;-74
2023/08/31 01:07:09;;;;;;;0.40;0.40;;;16.00;99.90;;;;;;4411498;32;20143;-74
2023/08/31 01:09:42;;;;;;;1.65;0.65;;;15.90;99.90;;;;;;4402933;32;20089;-74
2023/08/31 01:12:16;;;;;;;0.50;0.50;;;15.90;99.90;;;;;;4410617;32;20077;-74
2023/08/31 01:14:47;;;;;;;0.40;0.40;;;15.90;99.90;;;;;;4413657;32;20097;-74
2023/08/31 01:17:15;;;;;;;0.40;0.40;;;15.90;99.90;;;;;;4413798;32;20083;-74
2023/08/31 01:20:00;;;;;;;0.40;0.40;;;16.00;99.90;;;;;;4411336;32;20208;-74
2023/08/31 01:22:33;;;;;;;0.40;0.40;;;16.00;99.90;;;;;;4399192;32;20093;-74
2023/08/31 01:25:04;;;;;;;0.30;0.30;;;16.00;99.90;;;;;;4412160;32;20077;-74
2023/08/31 01:27:31;;;;;;;0.50;0.50;;;15.90;99.90;;;;;;4411172;32;20568;-74
2023/08/31 01:29:57;;;;;;;0.40;0.40;;;15.80;99.90;;;;;;4410364;32;20066;-74
2023/08/31 01:32:22;;;;;;;0.22;0.22;;;15.80;99.90;;;;;;4413389;32;20094;-74
2023/08/31 01:34:50;;;;;;;0.50;0.50;;;15.80;99.90;;;;;;4411525;32;20093;-74
2023/08/31 01:37:21;;;;;;;0.30;0.30;;;15.70;99.90;;;;;;4412059;32;20188;-74
2023/08/31 01:39:55;;;;;;;0.40;0.40;;;15.60;99.90;;;;;;4414002;32;20116;-74
2023/08/31 01:42:23;;;;;;;0.47;0.47;;;15.60;99.90;;;;;;4413543;32;20426;-74
2023/08/31 01:44:49;;;;;;;0.30;0.30;;;15.50;99.90;;;;;;4414131;32;20128;-74
2023/08/31 01:47:17;;;;;;;0.60;0.55;;;15.50;99.90;;;;;;4413711;32;20070;-74
2023/08/31 01:49:43;;;;;;;0.30;0.30;;;15.50;99.90;;;;;;4413813;32;20078;-74
2023/08/31 01:52:09;;;;;;;0.75;0.52;;;15.50;99.90;;;;;;4413623;32;20323;-74
2023/08/31 01:54:34;;;;;;;0.40;0.40;;;15.50;99.90;;;;;;4412862;32;20073;-74
2023/08/31 01:57:00;;;;;;;0.40;0.40;;;15.40;99.90;;;;;;4414172;32;20065;-74
2023/08/31 01:59:27;;;;;;;0.30;0.30;;;15.40;99.90;;;;;;4413708;32;20097;-74
2023/08/31 02:01:52;;;;;;;0.40;0.40;;;15.40;99.90;;;;;;4413570;32;20104;-74
2023/08/31 02:04:18;;;;;;;0.85;0.52;;;15.30;99.90;;;;;;4414107;32;20143;-74
2023/08/31 02:06:43;;;;;;;0.40;0.40;;;15.20;99.90;;;;;;4415873;32;20065;-74
2023/08/31 02:09:08;;;;;;;0.28;0.28;;;15.20;99.90;;;;;;4415677;32;21002;-73
2023/08/31 02:11:37;;;;;;;0.30;0.30;;;15.10;99.90;;;;;;4413419;32;20447;-74
2023/08/31 02:14:04;;;;;;;0.30;0.30;;;15.10;99.90;;;;;;4413885;32;20089;-74
2023/08/31 02:16:30;;;;;;;0.40;0.40;;;15.00;99.90;;;;;;4415367;32;20093;-74
2023/08/31 02:18:55;;;;;;;0.85;0.65;;;15.00;99.90;;;;;;4414088;32;20053;-74
2023/08/31 02:21:21;;;;;;;0.50;0.50;;;15.00;99.90;;;;;;4413643;32;20090;-74
2023/08/31 02:23:46;;;;;;;0.40;0.40;;;15.00;99.90;;;;;;4413675;32;20443;-74
2023/08/31 02:26:12;;;;;;;0.30;0.30;;;14.90;99.90;;;;;;4414074;32;20089;-74
2023/08/31 02:28:37;;;;;;;0.30;0.30;;;14.80;99.90;;;;;;4413848;32;20094;-73
2023/08/31 02:31:03;;;;;;;0.40;0.40;;;14.70;99.90;;;;;;4413537;32;20150;-74
2023/08/31 02:33:29;;;;;;;0.40;0.40;;;14.70;99.90;;;;;;4416148;32;20110;-74
2023/08/31 02:35:55;;;;;;;0.45;0.45;;;14.80;99.90;;;;;;4412727;32;20097;-74
2023/08/31 02:38:21;;;;;;;0.30;0.30;;;14.80;99.90;;;;;;4413307;32;20540;-74
2023/08/31 02:40:47;;;;;;;0.30;0.30;;;14.80;99.90;;;;;;4412562;32;20098;-73
2023/08/31 02:43:13;;;;;;;0.30;0.30;;;14.70;99.90;;;;;;4411203;32;20156;-73
2023/08/31 02:45:39;;;;;;;0.32;0.32;;;14.80;99.90;;;;;;4412435;32;20081;-74
2023/08/31 02:48:07;;;;;;;0.20;0.20;;;14.80;99.90;;;;;;4412434;32;20080;-74
2023/08/31 02:50:34;;;;;;;0.25;0.25;;;14.80;99.90;;;;;;4421544;32;21043;-74
2023/08/31 02:52:59;;;;;;;0.40;0.40;;;14.80;99.90;;;;;;4420194;32;20105;-74
2023/08/31 02:55:25;;;;;;;0.37;0.37;;;14.80;99.90;;;;;;4422964;32;20081;-74
2023/08/31 02:57:50;;;;;;;0.40;0.40;;;14.70;99.90;;;;;;4421616;32;20085;-74
2023/08/31 03:00:16;;;;;;;0.40;0.40;;;14.70;99.90;;;;;;4420850;32;20135;-74
2023/08/31 03:02:43;;;;;;;0.32;0.32;;;14.70;99.90;;;;;;4421274;32;20102;-74
2023/08/31 03:05:09;;;;;;;0.40;0.40;;;14.70;99.90;;;;;;4421959;32;20203;-74
2023/08/31 03:07:34;;;;;;;0.30;0.30;;;14.70;99.90;;;;;;4420554;32;20125;-74
2023/08/31 03:09:59;;;;;;;0.30;0.30;;;14.70;99.90;;;;;;4422224;32;20175;-74
2023/08/31 03:12:25;;;;;;;0.40;0.40;;;14.80;99.90;;;;;;4419596;32;20564;-74
2023/08/31 03:14:50;;;;;;;0.30;0.30;;;14.70;99.90;;;;;;4421338;32;20069;-74
2023/08/31 03:17:16;;;;;;;0.37;0.37;;;14.80;99.90;;;;;;4419894;32;20127;-74
2023/08/31 03:19:41;;;;;;;0.40;0.40;;;14.80;99.90;;;;;;4418216;32;20402;-74
2023/08/31 03:22:07;;;;;;;0.40;0.40;;;14.80;99.90;;;;;;4419663;32;20065;-74
2023/08/31 03:24:33;;;;;;;0.40;0.40;;;14.80;99.90;;;;;;4420683;32;20096;-74
2023/08/31 03:26:58;;;;;;;0.30;0.30;;;14.80;99.90;;;;;;4420273;32;20482;-74
2023/08/31 03:29:24;;;;;;;0.40;0.40;;;14.80;99.90;;;;;;4419254;32;20085;-74
2023/08/31 03:31:49;;;;;;;0.30;0.30;;;14.80;99.90;;;;;;4418922;32;20563;-73
2023/08/31 03:34:15;;;;;;;0.30;0.30;;;14.80;99.90;;;;;;4417153;32;20097;-74
2023/08/31 03:36:40;;;;;;;0.40;0.40;;;14.80;99.90;;;;;;4419563;32;20069;-74
2023/08/31 03:39:06;;;;;;;0.30;0.30;;;14.70;99.90;;;;;;4421012;32;20069;-74
2023/08/31 03:41:31;;;;;;;0.75;0.60;;;14.80;99.90;;;;;;4419062;32;20084;-74
2023/08/31 03:43:57;;;;;;;0.85;0.50;;;14.80;99.90;;;;;;4419108;32;20101;-74
2023/08/31 03:46:22;;;;;;;0.37;0.37;;;14.70;99.90;;;;;;4421477;32;20065;-74
2023/08/31 03:48:48;;;;;;;0.40;0.40;;;14.70;99.90;;;;;;4415187;32;20074;-74
2023/08/31 03:51:13;;;;;;;8.68;0.62;;;14.70;99.90;;;;;;4412076;32;20089;-74
2023/08/31 03:53:39;;;;;;;0.35;0.35;;;14.60;99.90;;;;;;4412980;32;20517;-74
2023/08/31 03:56:05;;;;;;;0.30;0.30;;;14.60;99.90;;;;;;4414934;32;20078;-74
2023/08/31 03:58:30;;;;;;;0.40;0.40;;;14.50;99.90;;;;;;4412524;32;20105;-74
2023/08/31 04:00:56;;;;;;;0.30;0.30;;;14.50;99.90;;;;;;4412140;32;20073;-74
2023/08/31 04:03:22;;;;;;;0.40;0.40;;;14.50;99.90;;;;;;4411364;32;20124;-74
2023/08/31 04:05:47;;;;;;;0.40;0.40;;;14.50;99.90;;;;;;4412504;32;20447;-74
2023/08/31 04:08:13;;;;;;;0.32;0.32;;;14.50;99.90;;;;;;4411847;32;20098;-74
2023/08/31 04:10:38;;;;;;;0.40;0.40;;;14.50;99.90;;;;;;4411813;32;20565;-74
2023/08/31 04:13:04;;;;;;;0.40;0.40;;;14.60;99.90;;;;;;4409686;32;20141;-74
2023/08/31 04:15:30;;;;;;;0.45;0.45;;;14.50;99.90;;;;;;4416181;32;20105;-74
2023/08/31 04:17:56;;;;;;;0.68;0.68;;;14.40;99.90;;;;;;4429342;32;20473;-72
2023/08/31 04:20:22;;;;;;;0.40;0.40;;;14.40;99.90;;;;;;4426241;32;20098;-75
2023/08/31 04:22:47;;;;;;;0.43;0.43;;;14.50;99.90;;;;;;4421285;32;20093;-74
2023/08/31 04:25:13;;;;;;;0.40;0.40;;;14.50;99.90;;;;;;4430093;32;20076;-73
2023/08/31 04:27:40;;;;;;;0.47;0.45;;;14.40;99.90;;;;;;4415571;32;20078;-74
2023/08/31 04:30:07;;;;;;;0.30;0.30;;;14.30;99.90;;;;;;4410993;32;20101;-74
2023/08/31 04:32:32;;;;;;;0.55;0.55;;;14.40;99.90;;;;;;4408897;32;20081;-74
2023/08/31 04:34:58;;;;;;;0.60;0.60;;;14.40;99.90;;;;;;4411200;32;20544;-74
2023/08/31 04:37:23;;;;;;;0.40;0.40;;;14.40;99.90;;;;;;4411055;32;20144;-74
2023/08/31 04:39:49;;;;;;;0.55;0.47;;;14.40;99.90;;;;;;4414056;32;20378;-74
2023/08/31 04:42:16;;;;;;;0.60;0.60;;;14.40;99.90;;;;;;4412185;32;20065;-74
2023/08/31 04:44:42;;;;;;;0.40;0.40;;;14.40;99.90;;;;;;4414821;32;20085;-74
2023/08/31 04:47:07;;;;;;;0.70;0.60;;;14.40;99.90;;;;;;4411432;32;20137;-73
2023/08/31 04:49:33;;;;;;;0.30;0.30;;;14.40;99.90;;;;;;4415828;32;20089;-74
2023/08/31 04:51:58;;;;;;;0.40;0.40;;;14.40;99.90;;;;;;4417705;32;20176;-74
2023/08/31 04:54:25;;;;;;;0.50;0.50;;;14.40;99.90;;;;;;4418706;32;20065;-74
2023/08/31 04:56:50;;;;;;;0.65;0.60;;;14.40;99.90;;;;;;4418008;32;20081;-74
2023/08/31 04:59:16;;;;;;;0.82;0.70;;;14.40;99.90;;;;;;4417876;32;20054;-74
2023/08/31 05:01:41;;;;;;;0.47;0.47;;;14.30;99.90;;;;;;4415453;32;20106;-74
2023/08/31 05:04:07;;;;;;;0.30;0.30;;;14.40;99.90;;;;;;4418369;32;20544;-74
2023/08/31 05:06:32;;;;;;;1.48;0.65;;;14.40;99.90;;;;;;4420057;32;20086;-74
2023/08/31 05:08:58;;;;;;;0.60;0.60;;;14.40;99.90;;;;;;4419194;32;20646;-74
2023/08/31 05:11:23;;;;;;;3.65;0.55;;;14.40;99.90;;;;;;4420089;32;20089;-74
2023/08/31 05:13:49;;;;;;;0.50;0.50;;;14.40;99.90;;;;;;4421627;32;20073;-74
2023/08/31 05:16:15;;;;;;;0.30;0.30;;;14.40;99.90;;;;;;4419966;32;20077;-74
2023/08/31 05:18:40;;;;;;;0.30;0.30;;;14.40;99.90;;;;;;4403176;32;20061;-74
2023/08/31 05:21:06;;;;;;;0.40;0.40;;;14.50;99.90;;;;;;4414129;32;20145;-74
2023/08/31 05:23:32;;;;;;;7.60;1.77;;;14.50;99.90;;;;;;4414277;32;20504;-74
2023/08/31 05:26:01;;;;;;;0.45;0.45;;;14.50;99.90;;;;;;4412666;32;20140;-74
2023/08/31 05:28:28;;;;;;;3.10;0.93;;;14.50;99.90;;;;;;4408105;32;20124;-74
2023/08/31 05:30:58;;;;;;;0.40;0.40;;;14.50;99.90;;;;;;4387942;32;20230;-74
2023/08/31 05:33:25;;;;;;;0.52;0.52;;;14.50;99.90;;;;;;4401339;32;20108;-74
2023/08/31 05:35:51;;;;;;;0.45;0.45;;;14.50;99.90;;;;;;4415459;32;20109;-74
2023/08/31 05:38:18;;;;;;;0.40;0.40;;;14.60;99.90;;;;;;4409223;32;20491;-75
2023/08/31 05:40:46;;;;;;;0.40;0.40;;;14.60;99.90;;;;;;4408628;32;20443;-76
2023/08/31 05:43:12;;;;;;;0.40;0.40;;;14.60;99.90;;;;;;4405431;32;20082;-74
2023/08/31 05:45:40;;;;;;;0.70;0.70;;;14.60;99.90;;;;;;4407917;32;20849;-75
2023/08/31 05:48:08;;;;;;;0.62;0.50;;;14.60;99.90;;;;;;4410907;32;20084;-74
2023/08/31 05:50:36;;;;;;;0.40;0.40;;;14.70;99.90;;;;;;4414315;32;20105;-73
2023/08/31 05:53:02;;;;;;;0.62;0.52;;;14.70;99.90;;;;;;4406422;32;20660;-74
2023/08/31 05:55:28;;;;;;;0.40;0.40;;;14.70;99.90;;;;;;4395437;32;20291;-73
2023/08/31 05:57:53;;;;;;;0.40;0.40;;;14.80;99.90;;;;;;4385101;32;21409;-73
2023/08/31 06:00:19;;;;;;;0.40;0.40;;;14.80;99.90;;;;;;4379030;32;20192;-73
2023/08/31 06:02:44;;;;;;;0.52;0.52;;;14.80;99.90;;;;;;4385226;32;21220;-72
2023/08/31 06:05:12;;;;;;;0.98;0.70;;;14.80;99.90;;;;;;4366838;32;20088;-73
2023/08/31 06:07:38;;;;;;;0.40;0.40;;;14.90;99.90;;;;;;4376745;32;20098;-73
2023/08/31 06:10:04;;;;;;;0.40;0.40;;;14.90;99.90;;;;;;4378054;32;20315;-73
2023/08/31 06:12:30;;;;;;;0.82;0.70;;;14.90;99.90;;;;;;4382088;32;20466;-73
2023/08/31 06:14:55;;;;;;;0.40;0.40;;;14.90;99.90;;;;;;4389830;32;20089;-73
2023/08/31 06:17:21;;;;;;;0.35;0.35;;;14.90;99.90;;;;;;4393816;32;20085;-73
2023/08/31 06:19:46;;;;;;;3.62;1.30;;;15.00;99.90;;;;;;4394248;32;20081;-73
2023/08/31 06:22:12;;;;;;;0.90;0.80;;;15.00;99.90;;;;;;4382209;32;20149;-73
2023/08/31 06:24:37;;;;;;;1.23;0.55;;;15.00;99.90;;;;;;4390645;32;20097;-73
2023/08/31 06:27:03;;;;;;;0.68;0.68;;;15.00;99.90;;;;;;4389111;32;20176;-73
2023/08/31 06:29:28;;;;;;;0.32;0.32;;;15.00;99.90;;;;;;4388378;32;20089;-73
2023/08/31 06:31:54;;;;;;;0.60;0.60;;;15.00;99.90;;;;;;4387535;32;20097;-73
2023/08/31 06:34:20;;;;;;;0.73;0.70;;;14.90;99.90;;;;;;4386588;32;20762;-74
2023/08/31 06:36:45;;;;;;;0.47;0.47;;;14.90;99.90;;;;;;4402412;32;20176;-73
2023/08/31 06:39:11;;;;;;;0.40;0.40;;;14.90;99.90;;;;;;4410792;32;20094;-73
2023/08/31 06:41:36;;;;;;;0.50;0.50;;;14.90;99.90;;;;;;4400108;32;20093;-73
2023/08/31 06:44:04;;;;;;;0.82;0.82;;;14.90;99.90;;;;;;4404725;32;20135;-73
2023/08/31 06:46:29;;;;;;;0.85;0.70;;;14.90;99.90;;;;;;4399895;32;20148;-74
2023/08/31 06:48:55;;;;;;;0.40;0.40;;;15.00;99.90;;;;;;4380014;32;20319;-74
2023/08/31 06:51:20;;;;;;;1.27;0.50;;;14.90;99.90;;;;;;4379906;32;21898;-73
2023/08/31 06:53:46;;;;;;;0.55;0.55;;;14.80;99.90;;;;;;4381348;32;20114;-74
2023/08/31 06:56:11;;;;;;;0.55;0.55;;;14.80;99.90;;;;;;4390291;32;20176;-74
2023/08/31 06:58:37;;;;;;;0.40;0.40;;;14.80;99.90;;;;;;4371907;32;20150;-73
2023/08/31 07:01:06;;;;;;;0.85;0.73;;;14.80;99.90;;;;;;4391877;32;20101;-73
2023/08/31 07:03:31;;;;;;;0.70;0.70;;;14.80;99.90;;;;;;4384639;32;20156;-74
2023/08/31 07:05:57;;;;;;;0.88;0.62;;;14.80;99.90;;;;;;4386120;32;20162;-73
2023/08/31 07:08:22;;;;;;;1.55;0.52;;;14.80;99.90;;;;;;4384047;32;20106;-75
2023/08/31 07:10:50;;;;;;;0.62;0.62;;;14.80;99.90;;;;;;4380031;32;20077;-73
2023/08/31 07:13:16;;;;;;;0.70;0.50;;;14.70;99.90;;;;;;4387467;32;20077;-73
2023/08/31 07:15:41;;;;;;;0.50;0.50;;;14.70;99.90;;;;;;4385023;32;20084;-73
2023/08/31 07:18:07;;;;;;;0.50;0.50;;;14.80;99.90;;;;;;4388103;32;20109;-73
2023/08/31 07:20:33;;;;;;;0.43;0.43;;;14.90;99.90;;;;;;4381099;32;20090;-72
2023/08/31 07:22:59;;;;;;;0.40;0.40;;;14.90;99.90;;;;;;4386729;32;20093;-72
2023/08/31 07:25:25;;;;;;;0.82;0.80;;;14.90;99.90;;;;;;4373028;32;22422;-73
2023/08/31 07:27:51;;;;;;;0.40;0.40;;;14.90;99.90;;;;;;4373274;32;20266;-73
2023/08/31 07:30:16;;;;;;;0.68;0.68;;;15.00;99.90;;;;;;4373118;32;20144;-73
2023/08/31 07:32:42;;;;;;;0.60;0.60;;;15.10;99.90;;;;;;4374999;32;20693;-73
2023/08/31 07:35:08;;;;;;;0.60;0.60;;;15.10;99.90;;;;;;4379775;32;20722;-73
2023/08/31 07:37:34;;;;;;;0.45;0.45;;;15.20;99.90;;;;;;4388224;32;20125;-74
2023/08/31 07:39:59;;;;;;;1.10;0.62;;;15.20;99.90;;;;;;4382970;32;20125;-74
2023/08/31 07:42:25;;;;;;;0.50;0.50;;;15.20;99.90;;;;;;4389399;32;20165;-74
2023/08/31 07:44:50;;;;;;;0.40;0.40;;;15.20;99.90;;;;;;4391483;32;20089;-73
2023/08/31 07:47:16;;;;;;;0.45;0.45;;;15.20;99.90;;;;;;4402137;32;20110;-75
2023/08/31 07:49:42;;;;;;;0.30;0.30;;;15.20;99.90;;;;;;4403888;32;20085;-73
2023/08/31 07:52:07;;;;;;;0.40;0.40;;;15.20;99.90;;;;;;4383733;32;20838;-73
2023/08/31 07:54:33;;;;;;;4.60;1.12;;;15.10;99.90;;;;;;4378023;32;20085;-74
2023/08/31 07:57:00;;;;;;;0.40;0.40;;;15.10;99.90;;;;;;4375121;32;20971;-74
2023/08/31 07:59:25;;;;;;;0.65;0.65;;;15.20;99.90;;;;;;4387465;32;20139;-73
2023/08/31 08:01:51;;;;;;;0.50;0.50;;;15.30;99.90;;;;;;4377793;32;20101;-75
2023/08/31 08:04:19;;;;;;;0.40;0.40;;;15.40;99.90;;;;;;4375633;32;20430;-74
2023/08/31 08:06:45;;;;;;;0.50;0.50;;;15.50;99.90;;;;;;4377091;32;20073;-74
2023/08/31 08:09:12;;;;;;;0.62;0.62;;;15.70;99.90;;;;;;4380982;32;20237;-73
2023/08/31 08:11:37;;;;;;;0.50;0.50;;;15.80;99.90;;;;;;4381685;32;20113;-73
2023/08/31 08:14:03;;;;;;;0.60;0.60;;;15.90;99.90;;;;;;4382149;32;21694;-73
2023/08/31 08:16:29;;;;;;;1.12;0.82;;;16.00;99.90;;;;;;4380239;32;20397;-73
2023/08/31 08:18:55;;;;;;;0.40;0.40;;;16.20;99.90;;;;;;4384633;32;20086;-73
2023/08/31 08:21:20;;;;;;;0.40;0.40;;;16.20;99.90;;;;;;4391692;32;20101;-72
2023/08/31 08:23:46;;;;;;;0.50;0.50;;;16.00;99.90;;;;;;4386172;32;20449;-73
2023/08/31 08:26:11;;;;;;;1.02;0.43;;;15.90;99.90;;;;;;4387164;32;20316;-73
2023/08/31 08:28:37;;;;;;;0.55;0.55;;;15.80;99.90;;;;;;4384470;32;20498;-73
2023/08/31 08:31:03;;;;;;;0.37;0.37;;;15.80;99.90;;;;;;4385053;32;20183;-73
2023/08/31 08:33:30;;;;;;;0.40;0.40;;;15.90;99.90;;;;;;4387615;32;20425;-73
2023/08/31 08:35:57;;;;;;;1.45;0.50;;;15.90;99.90;;;;;;4390545;32;20089;-73
2023/08/31 08:38:22;;;;;;;0.75;0.75;;;16.00;99.90;;;;;;4386889;32;20098;-73
2023/08/31 08:40:49;;;;;;;0.30;0.30;;;16.10;99.90;;;;;;4385984;32;20521;-73
2023/08/31 08:43:14;;;;;;;0.40;0.40;;;16.20;99.90;;;;;;4393265;32;20232;-73
2023/08/31 08:45:42;;;;;;;0.40;0.40;;;16.30;99.90;;;;;;4393904;32;20081;-73
2023/08/31 08:48:08;;;;;;;0.40;0.40;;;16.30;99.90;;;;;;4378377;32;20918;-73
2023/08/31 08:50:35;;;;;;;0.40;0.40;;;16.50;99.90;;;;;;4384050;32;21603;-73
2023/08/31 08:53:03;;;;;;;0.30;0.30;;;16.60;99.90;;;;;;4380619;32;20069;-72
2023/08/31 08:55:31;;;;;;;0.32;0.32;;;16.70;99.90;;;;;;4378136;32;20094;-72
2023/08/31 08:57:59;;;;;;;0.40;0.40;;;16.90;99.90;;;;;;4384699;32;20109;-71
2023/08/31 09:00:27;;;;;;;0.30;0.30;;;17.10;99.90;;;;;;4369612;32;20084;-73
2023/08/31 09:02:53;;;;;;;0.40;0.40;;;17.30;99.90;;;;;;4380083;32;20085;-72
2023/08/31 09:05:19;;;;;;;0.50;0.50;;;17.40;99.90;;;;;;4381722;32;20070;-74
2023/08/31 09:08:01;;;;;;;0.40;0.40;;;17.50;99.90;;;;;;4370552;32;20175;-73
2023/08/31 09:10:37;;;;;;;0.50;0.50;;;17.40;99.90;;;;;;4374317;32;20718;-73
2023/08/31 09:13:08;;;;;;;0.45;0.45;;;17.30;99.90;;;;;;4371743;32;21668;-72
2023/08/31 09:15:44;;;;;;;0.30;0.30;;;17.60;99.90;;;;;;4386967;32;20093;-73
2023/08/31 09:18:32;;;;;;;0.50;0.50;;;17.80;99.90;;;;;;4389261;32;20244;-73
2023/08/31 09:20:58;;;;;;;0.30;0.30;;;18.00;99.90;;;;;;4367395;32;20125;-72
2023/08/31 09:23:24;;;;;;;0.60;0.60;;;17.80;99.90;;;;;;4397128;32;20680;-72
2023/08/31 09:25:53;;;;;;;0.50;0.50;;;17.60;99.90;;;;;;4395375;32;20106;-74
2023/08/31 09:28:21;;;;;;;0.68;0.62;;;17.40;99.90;;;;;;4376895;32;20485;-71
2023/08/31 09:30:48;;;;;;;0.60;0.60;;;17.30;99.90;;;;;;4380970;32;20474;-73
2023/08/31 09:33:17;;;;;;;0.40;0.40;;;17.10;99.90;;;;;;4375410;32;20798;-74
2023/08/31 09:35:58;;;;;;;0.73;0.73;;;17.00;99.90;;;;;;4388283;32;20556;-74
2023/08/31 09:38:23;;;;;;;0.30;0.30;;;17.20;99.90;;;;;;4386323;32;21160;-74
2023/08/31 09:40:49;;;;;;;0.22;0.22;;;17.50;99.90;;;;;;4387184;32;20709;-73
2023/08/31 09:43:24;;;;;;;0.30;0.30;;;18.00;99.90;;;;;;4386784;32;20160;-73
2023/08/31 09:45:52;;;;;;;0.30;0.30;;;18.20;99.90;;;;;;4391070;32;20109;-74
2023/08/31 09:48:19;;;;;;;0.40;0.40;;;18.30;99.90;;;;;;4391115;32;20118;-73
2023/08/31 09:50:48;;;;;;;0.30;0.30;;;18.60;99.90;;;;;;4367215;32;20839;-73
2023/08/31 09:53:16;;;;;;;0.40;0.40;;;18.90;99.90;;;;;;4372321;32;20512;-73
2023/08/31 09:55:43;;;;;;;0.20;0.20;;;19.40;99.90;;;;;;4371572;32;20845;-74
2023/08/31 09:58:09;;;;;;;0.45;0.45;;;19.70;99.90;;;;;;4370647;32;21036;-74
2023/08/31 10:00:36;;;;;;;0.30;0.30;;;19.60;99.90;;;;;;4373770;32;20564;-73
2023/08/31 10:03:05;;;;;;;1.05;0.95;;;19.60;99.90;;;;;;4382039;32;20113;-74
2023/08/31 10:05:31;;;;;;;0.20;0.20;;;19.80;99.90;;;;;;4380191;32;21602;-73
2023/08/31 10:07:58;;;;;;;0.22;0.22;;;19.70;99.90;;;;;;4370541;32;20690;-73
2023/08/31 10:10:24;;;;;;;0.20;0.20;;;19.50;99.90;;;;;;4369249;32;20125;-73
2023/08/31 10:12:51;;;;;;;0.30;0.30;;;19.40;99.90;;;;;;4375455;32;21729;-73
2023/08/31 10:15:17;;;;;;;0.37;0.37;;;19.20;99.90;;;;;;4372231;32;20695;-73
2023/08/31 10:17:43;;;;;;;0.20;0.20;;;19.20;99.90;;;;;;4364494;32;20769;-73
2023/08/31 10:20:11;;;;;;;0.75;0.75;;;19.50;99.90;;;;;;4363982;32;20157;-73
2023/08/31 10:22:37;;;;;;;0.32;0.32;;;19.60;99.90;;;;;;4357405;32;20109;-74
2023/08/31 10:25:06;;;;;;;0.20;0.20;;;19.70;99.90;;;;;;4377005;32;20090;-74
2023/08/31 10:27:51;;;;;;;0.57;0.57;;;19.50;99.90;;;;;;4374286;32;20105;-74
2023/08/31 10:30:26;;;;;;;0.30;0.30;;;19.00;99.90;;;;;;4383278;32;20549;-74
2023/08/31 10:33:19;;;;;;;1.40;0.35;;;18.40;99.90;;;;;;4374280;32;20153;-74
2023/08/31 10:35:50;;;;;;;0.40;0.40;;;17.80;99.90;;;;;;4376642;32;20989;-74
2023/08/31 10:38:17;;;;;;;;;;;17.20;99.90;;;;;;4379460;32;20594;-75
2023/08/31 10:40:59;;;;;;;0.40;0.40;;;16.80;99.90;;;;;;4382562;32;19960;-74
2023/08/31 10:43:24;;;;;;;0.40;0.40;;;16.60;99.90;;;;;;4370453;32;20372;-74
2023/08/31 10:45:50;;;;;;;0.37;0.37;;;16.40;99.90;;;;;;4389047;32;20577;-74
2023/08/31 10:48:17;;;;;;;0.28;0.28;;;16.40;99.90;;;;;;4380910;32;20090;-75
2023/08/31 10:50:44;;;;;;;0.30;0.30;;;16.50;99.90;;;;;;4381844;32;20132;-77
2023/08/31 10:53:11;;;;;;;0.50;0.50;;;16.50;99.90;;;;;;4381612;32;20236;-75
2023/08/31 10:55:53;;;;;;;0.30;0.30;;;16.60;99.90;;;;;;4373954;32;20077;-74
2023/08/31 10:58:18;;;;;;;0.32;0.32;;;16.70;99.90;;;;;;4361868;32;20099;-74
2023/08/31 11:00:55;;;;;;;0.30;0.30;;;16.80;99.90;;;;;;4377360;32;20131;-73
2023/08/31 11:03:21;;;;;;;0.30;0.30;;;16.80;99.90;;;;;;4377933;32;20326;-74
2023/08/31 11:05:54;;;;;;;0.30;0.30;;;17.00;99.90;;;;;;4376514;32;20110;-73
2023/08/31 11:08:24;;;;;;;0.30;0.30;;;17.20;99.90;;;;;;4373228;32;21661;-73
2023/08/31 11:10:50;;;;;;;0.22;0.22;;;17.70;99.90;;;;;;4376857;32;20113;-74
2023/08/31 11:13:18;;;;;;;0.30;0.30;;;18.30;99.90;;;;;;4388456;32;20142;-73
2023/08/31 11:15:50;;;;;;;0.30;0.30;;;18.80;99.90;;;;;;4380068;32;20110;-73
2023/08/31 11:18:17;;;;;;;1.17;0.50;;;19.30;99.90;;;;;;4380273;32;20098;-73
2023/08/31 11:20:44;;;;;;;0.20;0.20;;;19.90;99.90;;;;;;4383069;32;20105;-74
2023/08/31 11:23:10;;;;;;;0.20;0.20;;;20.40;99.90;;;;;;4379040;32;20237;-74
2023/08/31 11:25:36;;;;;;;0.30;0.30;;;20.90;99.90;;;;;;4388060;32;20105;-73
2023/08/31 11:28:05;;;;;;;3.28;0.15;;;21.20;99.90;;;;;;4374809;32;20191;-73
2023/08/31 11:30:32;;;;;;;0.20;0.20;;;21.60;99.90;;;;;;4373319;32;20112;-73
2023/08/31 11:33:03;;;;;;;0.40;0.40;;;21.60;99.90;;;;;;4383065;32;20081;-74
2023/08/31 11:35:33;;;;;;;0.15;0.15;;;21.80;99.90;;;;;;4377025;32;20094;-74
2023/08/31 11:38:00;;;;;;;17.45;1.98;;;22.30;99.90;;;;;;4381899;32;21414;-73
2023/08/31 11:40:27;;;;;;;0.22;0.22;;;22.60;99.90;;;;;;4379137;32;20097;-73
2023/08/31 11:42:53;;;;;;;0.10;0.10;;;22.90;99.90;;;;;;4382691;32;20077;-72
2023/08/31 11:45:19;;;;;;;0.10;0.10;;;22.70;99.90;;;;;;4376944;32;20407;-73
2023/08/31 11:47:44;;;;;;;0.13;0.13;;;22.80;99.90;;;;;;4372426;32;98764;-73
2023/08/31 11:50:12;;;;;;;1.12;0.80;;;22.70;99.90;;;;;;4382694;32;20452;-72
2023/08/31 11:52:38;;;;;;;0.20;0.20;;;22.50;99.90;;;;;;4392801;32;20615;-73
2023/08/31 11:55:11;;;;;;;0.25;0.25;;;21.70;99.90;;;;;;4399664;32;20093;-72
2023/08/31 11:57:36;;;;;;;0.22;0.22;;;21.20;99.90;;;;;;4398040;32;20097;-72
2023/08/31 12:00:04;;;;;;;0.20;0.20;;;20.90;99.90;;;;;;4396359;32;20821;-73
2023/08/31 12:02:36;;;;;;;0.20;0.20;;;20.60;99.90;;;;;;4402449;32;20184;-73
2023/08/31 12:05:01;;;;;;;1.52;0.73;;;20.30;99.90;;;;;;4397241;32;20122;-73
2023/08/31 12:07:27;;;;;;;1.67;0.45;;;19.90;99.90;;;;;;4404158;32;20077;-72
2023/08/31 12:09:52;;;;;;;0.20;0.20;;;19.60;99.90;;;;;;4404375;32;20101;-73
2023/08/31 12:12:21;;;;;;;0.37;0.37;;;19.20;99.90;;;;;;4404969;32;20081;-72
2023/08/31 12:14:47;;;;;;;0.20;0.20;;;19.00;99.90;;;;;;4401219;32;20089;-72
2023/08/31 12:17:12;;;;;;;0.40;0.40;;;18.90;99.90;;;;;;4401602;32;20130;-73
2023/08/31 12:19:39;;;;;;;0.30;0.30;;;19.40;99.90;;;;;;4394741;32;20096;-73
2023/08/31 12:22:12;;;;;;;0.10;0.10;;;20.00;99.90;;;;;;4403323;32;20113;-73
2023/08/31 12:24:40;;;;;;;0.40;0.40;;;20.10;99.90;;;;;;4396764;32;20097;-73
2023/08/31 12:27:06;;;;;;;0.85;0.55;;;19.90;99.90;;;;;;4400380;32;20815;-74
2023/08/31 12:29:32;;;;;;;0.40;0.40;;;19.70;99.90;;;;;;4401376;32;20655;-73
2023/08/31 12:31:57;;;;;;;0.30;0.30;;;19.40;99.90;;;;;;4397311;32;20086;-74
2023/08/31 12:34:23;;;;;;;0.20;0.20;;;19.20;99.90;;;;;;4399671;32;20799;-73
2023/08/31 12:36:49;;;;;;;0.30;0.30;;;19.10;99.90;;;;;;4403716;32;20512;-73
2023/08/31 12:39:14;;;;;;;0.28;0.28;;;18.90;99.90;;;;;;4398047;32;21365;-73
2023/08/31 12:41:40;;;;;;;0.30;0.30;;;18.70;99.90;;;;;;4403207;32;20603;-73
2023/08/31 12:44:07;;;;;;;0.37;0.37;;;18.60;99.90;;;;;;4398563;32;21158;-73
2023/08/31 12:46:32;;;;;;;0.30;0.30;;;18.30;99.90;;;;;;4399539;32;20834;-73